sensor_id;sensor_type;location;lat;lon;timestamp;pressure;altitude;pressure_sealevel;temperature;humidity
31062;BME280;17724;53.546;9.974;2023-07-29T00:03:37;100665.41;;;21.01;100.00
31062;BME280;17724;53.546;9.974;2023-07-29T00:07:37;100655.88;;;21.11;100.00
31062;BME280;17724;53.546;9.974;2023-07-29T00:11:38;100657.00;;;21.19;100.00
31062;BME280;17724;53.546;9.974;2023-07-29T00:15:38;100659.28;;;21.16;100.00
31062;BME280;17724;53.546;9.974;2023-07-29T00:19:39;100675.88;;;21.22;100.00
31062;BME280;17724;53.546;9.974;2023-07-29T00:23:39;100658.47;;;21.16;100.00
31062;BME280;17724;53.546;9.974;2023-07-29T00:27:40;100655.03;;;21.02;100.00
31062;BME280;17724;53.546;9.974;2023-07-29T00:31:40;100654.56;;;21.00;100.00
31062;BME280;17724;53.546;9.974;2023-07-29T00:35:41;100650.63;;;20.92;100.00
31062;BME280;17724;53.546;9.974;2023-07-29T00:39:41;100644.09;;;20.79;100.00
31062;BME280;17724;53.546;9.974;2023-07-29T00:43:43;100642.91;;;20.89;100.00
31062;BME280;17724;53.546;9.974;2023-07-29T00:47:44;100627.63;;;20.78;100.00
31062;BME280;17724;53.546;9.974;2023-07-29T00:51:45;100628.16;;;20.54;100.00
31062;BME280;17724;53.546;9.974;2023-07-29T00:55:45;100631.09;;;20.75;100.00
31062;BME280;17724;53.546;9.974;2023-07-29T00:59:46;100623.72;;;20.61;100.00
31062;BME280;17724;53.546;9.974;2023-07-29T01:03:46;100613.88;;;20.55;100.00
31062;BME280;17724;53.546;9.974;2023-07-29T01:08:06;100607.59;;;20.41;100.00
31062;BME280;17724;53.546;9.974;2023-07-29T01:16:42;100604.94;;;20.10;100.00
31062;BME280;17724;53.546;9.974;2023-07-29T01:20:46;100605.28;;;20.17;100.00
31062;BME280;17724;53.546;9.974;2023-07-29T01:24:47;100588.19;;;20.18;100.00
31062;BME280;17724;53.546;9.974;2023-07-29T01:28:48;100599.72;;;20.43;100.00
31062;BME280;17724;53.546;9.974;2023-07-29T01:32:55;100606.78;;;20.49;100.00
31062;BME280;17724;53.546;9.974;2023-07-29T01:37:00;100617.13;;;20.57;100.00
31062;BME280;17724;53.546;9.974;2023-07-29T01:41:04;100619.59;;;20.41;100.00
31062;BME280;17724;53.546;9.974;2023-07-29T01:45:06;100619.91;;;20.23;100.00
31062;BME280;17724;53.546;9.974;2023-07-29T01:49:07;100635.19;;;20.16;100.00
31062;BME280;17724;53.546;9.974;2023-07-29T01:53:07;100624.03;;;20.16;100.00
31062;BME280;17724;53.546;9.974;2023-07-29T01:57:08;100611.69;;;20.00;100.00
31062;BME280;17724;53.546;9.974;2023-07-29T02:01:09;100613.16;;;20.06;100.00
31062;BME280;17724;53.546;9.974;2023-07-29T02:05:09;100606.09;;;19.91;100.00
31062;BME280;17724;53.546;9.974;2023-07-29T02:09:10;100605.41;;;19.86;100.00
31062;BME280;17724;53.546;9.974;2023-07-29T02:13:11;100602.44;;;19.82;100.00
31062;BME280;17724;53.546;9.974;2023-07-29T02:17:12;100596.03;;;19.73;100.00
31062;BME280;17724;53.546;9.974;2023-07-29T02:21:12;100587.91;;;19.54;100.00
31062;BME280;17724;53.546;9.974;2023-07-29T02:25:15;100585.00;;;19.59;100.00
31062;BME280;17724;53.546;9.974;2023-07-29T02:29:16;100557.22;;;19.45;100.00
31062;BME280;17724;53.546;9.974;2023-07-29T02:33:16;100576.28;;;19.52;100.00
31062;BME280;17724;53.546;9.974;2023-07-29T02:37:17;100581.34;;;19.59;100.00
31062;BME280;17724;53.546;9.974;2023-07-29T02:41:18;100588.72;;;19.55;100.00
31062;BME280;17724;53.546;9.974;2023-07-29T02:45:18;100582.63;;;19.35;100.00
31062;BME280;17724;53.546;9.974;2023-07-29T02:49:18;100576.72;;;19.37;100.00
31062;BME280;17724;53.546;9.974;2023-07-29T02:53:19;100565.72;;;19.32;100.00
31062;BME280;17724;53.546;9.974;2023-07-29T02:57:20;100575.19;;;19.31;100.00
31062;BME280;17724;53.546;9.974;2023-07-29T03:01:20;100576.53;;;19.33;100.00
31062;BME280;17724;53.546;9.974;2023-07-29T03:05:21;100570.34;;;19.45;100.00
31062;BME280;17724;53.546;9.974;2023-07-29T03:09:22;100564.56;;;19.33;100.00
31062;BME280;17724;53.546;9.974;2023-07-29T03:13:22;100566.09;;;19.48;100.00
31062;BME280;17724;53.546;9.974;2023-07-29T03:17:23;100569.16;;;19.37;100.00
31062;BME280;17724;53.546;9.974;2023-07-29T03:21:23;100572.16;;;19.50;100.00
31062;BME280;17724;53.546;9.974;2023-07-29T03:25:24;100568.78;;;19.61;100.00
31062;BME280;17724;53.546;9.974;2023-07-29T03:29:24;100561.69;;;19.55;100.00
31062;BME280;17724;53.546;9.974;2023-07-29T03:33:26;100581.34;;;19.59;100.00
31062;BME280;17724;53.546;9.974;2023-07-29T03:37:26;100579.69;;;19.49;100.00
31062;BME280;17724;53.546;9.974;2023-07-29T03:41:27;100577.72;;;19.41;100.00
31062;BME280;17724;53.546;9.974;2023-07-29T03:45:27;100575.19;;;19.22;100.00
31062;BME280;17724;53.546;9.974;2023-07-29T03:49:29;100573.47;;;19.43;100.00
31062;BME280;17724;53.546;9.974;2023-07-29T03:53:30;100570.28;;;19.28;100.00
31062;BME280;17724;53.546;9.974;2023-07-29T03:57:30;100570.63;;;19.35;100.00
31062;BME280;17724;53.546;9.974;2023-07-29T04:01:31;100571.97;;;19.46;100.00
31062;BME280;17724;53.546;9.974;2023-07-29T04:05:31;100557.72;;;19.48;100.00
31062;BME280;17724;53.546;9.974;2023-07-29T04:09:32;100556.56;;;19.49;100.00
31062;BME280;17724;53.546;9.974;2023-07-29T04:13:32;100556.03;;;19.38;100.00
31062;BME280;17724;53.546;9.974;2023-07-29T04:17:33;100563.09;;;19.35;100.00
31062;BME280;17724;53.546;9.974;2023-07-29T04:21:33;100567.00;;;19.26;100.00
31062;BME280;17724;53.546;9.974;2023-07-29T04:25:34;100559.81;;;19.33;100.00
31062;BME280;17724;53.546;9.974;2023-07-29T04:29:36;100561.63;;;19.47;100.00
31062;BME280;17724;53.546;9.974;2023-07-29T04:33:36;100567.72;;;19.40;100.00
31062;BME280;17724;53.546;9.974;2023-07-29T04:37:37;100544.41;;;19.44;100.00
31062;BME280;17724;53.546;9.974;2023-07-29T04:41:37;100566.28;;;19.60;100.00
31062;BME280;17724;53.546;9.974;2023-07-29T04:45:43;100564.38;;;19.78;100.00
31062;BME280;17724;53.546;9.974;2023-07-29T04:49:43;100556.63;;;19.75;100.00
31062;BME280;17724;53.546;9.974;2023-07-29T04:53:44;100561.75;;;19.81;100.00
31062;BME280;17724;53.546;9.974;2023-07-29T04:57:44;100547.75;;;19.55;100.00
31062;BME280;17724;53.546;9.974;2023-07-29T05:01:45;100553.78;;;19.57;100.00
31062;BME280;17724;53.546;9.974;2023-07-29T05:05:46;100553.16;;;19.60;100.00
31062;BME280;17724;53.546;9.974;2023-07-29T05:09:47;100557.97;;;19.68;100.00
31062;BME280;17724;53.546;9.974;2023-07-29T05:13:48;100558.56;;;19.57;100.00
31062;BME280;17724;53.546;9.974;2023-07-29T05:17:48;100543.50;;;19.66;100.00
31062;BME280;17724;53.546;9.974;2023-07-29T05:21:49;100558.66;;;19.83;100.00
31062;BME280;17724;53.546;9.974;2023-07-29T05:25:50;100557.66;;;19.96;100.00
31062;BME280;17724;53.546;9.974;2023-07-29T05:29:50;100564.22;;;20.09;100.00
31062;BME280;17724;53.546;9.974;2023-07-29T05:33:51;100561.28;;;20.14;100.00
31062;BME280;17724;53.546;9.974;2023-07-29T05:37:51;100562.44;;;20.04;100.00
31062;BME280;17724;53.546;9.974;2023-07-29T05:41:52;100560.94;;;19.98;100.00
31062;BME280;17724;53.546;9.974;2023-07-29T05:45:52;100566.03;;;19.96;100.00
31062;BME280;17724;53.546;9.974;2023-07-29T05:49:53;100560.94;;;19.89;100.00
31062;BME280;17724;53.546;9.974;2023-07-29T05:53:54;100555.53;;;19.93;100.00
31062;BME280;17724;53.546;9.974;2023-07-29T05:57:55;100555.19;;;19.86;100.00
31062;BME280;17724;53.546;9.974;2023-07-29T06:01:56;100551.56;;;19.85;100.00
31062;BME280;17724;53.546;9.974;2023-07-29T06:05:56;100550.28;;;19.91;100.00
31062;BME280;17724;53.546;9.974;2023-07-29T06:09:57;100551.75;;;19.80;100.00
31062;BME280;17724;53.546;9.974;2023-07-29T06:13:58;100539.09;;;19.74;100.00
31062;BME280;17724;53.546;9.974;2023-07-29T06:17:59;100539.44;;;20.07;100.00
31062;BME280;17724;53.546;9.974;2023-07-29T06:21:59;100547.47;;;20.26;100.00
31062;BME280;17724;53.546;9.974;2023-07-29T06:26:01;100543.84;;;20.34;100.00
31062;BME280;17724;53.546;9.974;2023-07-29T06:30:02;100540.41;;;20.37;100.00
31062;BME280;17724;53.546;9.974;2023-07-29T06:34:03;100533.03;;;20.24;100.00
31062;BME280;17724;53.546;9.974;2023-07-29T06:38:03;100524.97;;;20.49;100.00
31062;BME280;17724;53.546;9.974;2023-07-29T06:42:04;100519.84;;;20.59;100.00
31062;BME280;17724;53.546;9.974;2023-07-29T06:46:04;100519.19;;;20.45;100.00
31062;BME280;17724;53.546;9.974;2023-07-29T06:50:05;100530.97;;;20.77;100.00
31062;BME280;17724;53.546;9.974;2023-07-29T06:54:05;100538.22;;;20.69;100.00
31062;BME280;17724;53.546;9.974;2023-07-29T06:58:06;100516.09;;;20.55;100.00
31062;BME280;17724;53.546;9.974;2023-07-29T07:02:07;100538.72;;;20.62;100.00
31062;BME280;17724;53.546;9.974;2023-07-29T07:06:07;100539.25;;;20.56;100.00
31062;BME280;17724;53.546;9.974;2023-07-29T07:10:08;100560.13;;;20.50;100.00
31062;BME280;17724;53.546;9.974;2023-07-29T07:14:08;100556.50;;;20.49;100.00
31062;BME280;17724;53.546;9.974;2023-07-29T07:18:09;100554.22;;;20.51;100.00
31062;BME280;17724;53.546;9.974;2023-07-29T07:22:09;100553.03;;;20.61;100.00
31062;BME280;17724;53.546;9.974;2023-07-29T07:26:10;100548.09;;;20.66;100.00
31062;BME280;17724;53.546;9.974;2023-07-29T07:30:11;100546.28;;;20.71;100.00
31062;BME280;17724;53.546;9.974;2023-07-29T07:34:11;100541.53;;;20.62;100.00
31062;BME280;17724;53.546;9.974;2023-07-29T07:38:12;100542.66;;;20.70;100.00
31062;BME280;17724;53.546;9.974;2023-07-29T07:42:12;100544.97;;;20.68;100.00
31062;BME280;17724;53.546;9.974;2023-07-29T07:46:12;100533.63;;;20.73;100.00
31062;BME280;17724;53.546;9.974;2023-07-29T07:50:13;100538.69;;;20.80;100.00
31062;BME280;17724;53.546;9.974;2023-07-29T07:54:14;100534.31;;;20.61;100.00
31062;BME280;17724;53.546;9.974;2023-07-29T07:58:15;100536.25;;;20.70;100.00
31062;BME280;17724;53.546;9.974;2023-07-29T08:02:15;100533.31;;;20.57;100.00
31062;BME280;17724;53.546;9.974;2023-07-29T08:06:16;100521.84;;;20.33;100.00
31062;BME280;17724;53.546;9.974;2023-07-29T08:10:16;100529.88;;;20.43;100.00
31062;BME280;17724;53.546;9.974;2023-07-29T08:14:17;100531.06;;;20.51;100.00
31062;BME280;17724;53.546;9.974;2023-07-29T08:18:18;100530.34;;;20.62;100.00
31062;BME280;17724;53.546;9.974;2023-07-29T08:22:18;100531.19;;;20.54;100.00
31062;BME280;17724;53.546;9.974;2023-07-29T08:26:19;100531.50;;;20.61;100.00
31062;BME280;17724;53.546;9.974;2023-07-29T08:30:20;100525.72;;;20.75;100.00
31062;BME280;17724;53.546;9.974;2023-07-29T08:34:20;100538.50;;;20.85;100.00
31062;BME280;17724;53.546;9.974;2023-07-29T08:38:21;100534.13;;;20.75;100.00
31062;BME280;17724;53.546;9.974;2023-07-29T08:42:23;100551.59;;;20.55;100.00
31062;BME280;17724;53.546;9.974;2023-07-29T08:46:23;100541.19;;;20.73;100.00
31062;BME280;17724;53.546;9.974;2023-07-29T08:50:24;100550.38;;;20.73;100.00
31062;BME280;17724;53.546;9.974;2023-07-29T08:54:25;100544.13;;;20.76;100.00
31062;BME280;17724;53.546;9.974;2023-07-29T08:58:26;100549.34;;;20.95;100.00
31062;BME280;17724;53.546;9.974;2023-07-29T09:02:27;100547.56;;;20.90;100.00
31062;BME280;17724;53.546;9.974;2023-07-29T09:06:28;100546.34;;;21.00;100.00
31062;BME280;17724;53.546;9.974;2023-07-29T09:10:29;100539.53;;;21.19;100.00
31062;BME280;17724;53.546;9.974;2023-07-29T09:14:29;100534.34;;;21.38;100.00
31062;BME280;17724;53.546;9.974;2023-07-29T09:18:30;100537.84;;;21.35;100.00
31062;BME280;17724;53.546;9.974;2023-07-29T09:22:31;100532.25;;;21.35;100.00
31062;BME280;17724;53.546;9.974;2023-07-29T09:26:31;100534.69;;;21.36;100.00
31062;BME280;17724;53.546;9.974;2023-07-29T09:30:32;100535.16;;;21.68;100.00
31062;BME280;17724;53.546;9.974;2023-07-29T09:34:41;100525.38;;;21.74;100.00
31062;BME280;17724;53.546;9.974;2023-07-29T09:38:43;100527.41;;;21.95;100.00
31062;BME280;17724;53.546;9.974;2023-07-29T09:42:52;100512.41;;;22.11;100.00
31062;BME280;17724;53.546;9.974;2023-07-29T09:46:53;100519.47;;;22.18;100.00
31062;BME280;17724;53.546;9.974;2023-07-29T09:50:54;100515.91;;;22.62;100.00
31062;BME280;17724;53.546;9.974;2023-07-29T09:54:55;100506.34;;;22.88;100.00
31062;BME280;17724;53.546;9.974;2023-07-29T09:58:56;100515.41;;;23.18;100.00
31062;BME280;17724;53.546;9.974;2023-07-29T10:03:00;100515.28;;;23.39;100.00
31062;BME280;17724;53.546;9.974;2023-07-29T10:07:00;100521.00;;;23.67;98.45
31062;BME280;17724;53.546;9.974;2023-07-29T10:11:02;100519.59;;;23.36;96.22
31062;BME280;17724;53.546;9.974;2023-07-29T10:15:05;100524.16;;;23.78;95.19
31062;BME280;17724;53.546;9.974;2023-07-29T10:19:07;100526.22;;;23.81;92.57
31062;BME280;17724;53.546;9.974;2023-07-29T10:23:08;100520.94;;;23.92;93.18
31062;BME280;17724;53.546;9.974;2023-07-29T10:27:11;100526.63;;;23.67;88.01
31062;BME280;17724;53.546;9.974;2023-07-29T10:31:17;100514.34;;;23.47;90.33
31062;BME280;17724;53.546;9.974;2023-07-29T10:35:18;100523.72;;;23.15;85.68
31062;BME280;17724;53.546;9.974;2023-07-29T10:39:18;100515.38;;;23.06;87.16
31062;BME280;17724;53.546;9.974;2023-07-29T10:43:28;100506.16;;;23.05;88.97
31062;BME280;17724;53.546;9.974;2023-07-29T10:47:31;100516.38;;;22.77;86.83
31062;BME280;17724;53.546;9.974;2023-07-29T10:51:37;100501.09;;;22.86;88.09
31062;BME280;17724;53.546;9.974;2023-07-29T10:55:37;100509.78;;;23.06;87.20
31062;BME280;17724;53.546;9.974;2023-07-29T10:59:38;100501.97;;;23.11;86.74
31062;BME280;17724;53.546;9.974;2023-07-29T11:03:39;100493.66;;;23.15;86.62
31062;BME280;17724;53.546;9.974;2023-07-29T11:07:48;100509.81;;;23.30;87.35
31062;BME280;17724;53.546;9.974;2023-07-29T11:11:50;100494.38;;;23.24;87.28
31062;BME280;17724;53.546;9.974;2023-07-29T11:15:51;100508.63;;;23.07;84.81
31062;BME280;17724;53.546;9.974;2023-07-29T11:19:54;100506.72;;;22.86;85.62
31062;BME280;17724;53.546;9.974;2023-07-29T11:23:56;100508.22;;;22.72;85.99
31062;BME280;17724;53.546;9.974;2023-07-29T11:27:59;100506.53;;;22.46;88.13
31062;BME280;17724;53.546;9.974;2023-07-29T11:32:00;100517.16;;;22.53;87.90
31062;BME280;17724;53.546;9.974;2023-07-29T11:36:00;100515.28;;;23.02;85.09
31062;BME280;17724;53.546;9.974;2023-07-29T11:40:01;100511.03;;;23.57;85.76
31062;BME280;17724;53.546;9.974;2023-07-29T11:44:03;100508.22;;;23.82;83.75
31062;BME280;17724;53.546;9.974;2023-07-29T11:48:04;100510.84;;;24.03;82.31
31062;BME280;17724;53.546;9.974;2023-07-29T11:52:09;100506.88;;;24.04;80.91
31062;BME280;17724;53.546;9.974;2023-07-29T11:56:11;100507.19;;;24.15;78.14
31062;BME280;17724;53.546;9.974;2023-07-29T12:00:13;100516.97;;;24.21;80.39
31062;BME280;17724;53.546;9.974;2023-07-29T12:04:17;100510.69;;;23.83;78.80
31062;BME280;17724;53.546;9.974;2023-07-29T12:08:17;100505.44;;;23.82;78.26
31062;BME280;17724;53.546;9.974;2023-07-29T12:12:18;100517.59;;;23.86;74.30
31062;BME280;17724;53.546;9.974;2023-07-29T12:16:19;100518.03;;;23.88;73.97
31062;BME280;17724;53.546;9.974;2023-07-29T12:20:20;100520.84;;;23.88;71.34
31062;BME280;17724;53.546;9.974;2023-07-29T12:24:22;100512.63;;;24.23;72.26
31062;BME280;17724;53.546;9.974;2023-07-29T12:28:23;100510.69;;;24.12;72.16
31062;BME280;17724;53.546;9.974;2023-07-29T12:32:25;100506.38;;;24.14;71.36
31062;BME280;17724;53.546;9.974;2023-07-29T12:36:47;100502.22;;;24.24;69.95
31062;BME280;17724;53.546;9.974;2023-07-29T12:40:48;100491.03;;;24.12;68.61
31062;BME280;17724;53.546;9.974;2023-07-29T12:44:49;100495.94;;;23.87;68.29
31062;BME280;17724;53.546;9.974;2023-07-29T12:48:49;100502.22;;;23.96;68.24
31062;BME280;17724;53.546;9.974;2023-07-29T12:52:50;100503.94;;;24.28;67.93
31062;BME280;17724;53.546;9.974;2023-07-29T12:56:51;100485.19;;;24.32;69.33
31062;BME280;17724;53.546;9.974;2023-07-29T13:00:51;100512.94;;;24.34;67.14
31062;BME280;17724;53.546;9.974;2023-07-29T13:04:52;100497.47;;;24.40;68.27
31062;BME280;17724;53.546;9.974;2023-07-29T13:08:53;100500.88;;;24.46;70.25
31062;BME280;17724;53.546;9.974;2023-07-29T13:12:53;100504.06;;;24.32;68.01
31062;BME280;17724;53.546;9.974;2023-07-29T13:16:54;100505.56;;;24.29;68.38
31062;BME280;17724;53.546;9.974;2023-07-29T13:20:55;100502.38;;;24.43;67.83
31062;BME280;17724;53.546;9.974;2023-07-29T13:24:55;100513.03;;;24.38;65.83
31062;BME280;17724;53.546;9.974;2023-07-29T13:28:56;100508.28;;;24.38;68.05
31062;BME280;17724;53.546;9.974;2023-07-29T13:32:57;100511.09;;;24.38;67.50
31062;BME280;17724;53.546;9.974;2023-07-29T13:36:57;100513.09;;;24.25;67.26
31062;BME280;17724;53.546;9.974;2023-07-29T13:40:58;100512.28;;;24.25;67.77
31062;BME280;17724;53.546;9.974;2023-07-29T13:44:58;100505.56;;;24.29;66.36
31062;BME280;17724;53.546;9.974;2023-07-29T13:48:59;100499.47;;;24.40;66.91
31062;BME280;17724;53.546;9.974;2023-07-29T13:52:59;100502.16;;;24.36;68.17
31062;BME280;17724;53.546;9.974;2023-07-29T13:57:00;100505.41;;;24.50;68.36
31062;BME280;17724;53.546;9.974;2023-07-29T14:01:00;100508.31;;;24.26;69.03
31062;BME280;17724;53.546;9.974;2023-07-29T14:05:01;100510.81;;;24.43;66.84
31062;BME280;17724;53.546;9.974;2023-07-29T14:09:01;100497.84;;;24.11;66.87
31062;BME280;17724;53.546;9.974;2023-07-29T14:13:02;100512.09;;;24.33;69.13
31062;BME280;17724;53.546;9.974;2023-07-29T14:17:02;100512.44;;;24.44;67.61
31062;BME280;17724;53.546;9.974;2023-07-29T14:21:06;100495.47;;;24.13;67.81
31062;BME280;17724;53.546;9.974;2023-07-29T14:25:07;100499.09;;;24.41;68.40
31062;BME280;17724;53.546;9.974;2023-07-29T14:29:08;100502.38;;;24.43;69.06
31062;BME280;17724;53.546;9.974;2023-07-29T14:33:08;100499.72;;;24.63;67.49
31062;BME280;17724;53.546;9.974;2023-07-29T14:37:09;100488.38;;;24.31;66.52
31062;BME280;17724;53.546;9.974;2023-07-29T14:41:09;100495.16;;;24.58;67.75
31062;BME280;17724;53.546;9.974;2023-07-29T14:45:13;100494.53;;;24.65;66.51
31062;BME280;17724;53.546;9.974;2023-07-29T14:49:14;100489.53;;;24.58;64.65
31062;BME280;17724;53.546;9.974;2023-07-29T14:53:14;100479.75;;;24.68;63.45
31062;BME280;17724;53.546;9.974;2023-07-29T14:57:17;100495.97;;;24.58;61.30
31062;BME280;17724;53.546;9.974;2023-07-29T15:01:17;100500.66;;;24.39;60.78
31062;BME280;17724;53.546;9.974;2023-07-29T15:05:18;100504.34;;;24.71;62.06
31062;BME280;17724;53.546;9.974;2023-07-29T15:09:19;100494.34;;;24.89;65.51
31062;BME280;17724;53.546;9.974;2023-07-29T15:13:19;100489.19;;;24.91;63.68
31062;BME280;17724;53.546;9.974;2023-07-29T15:17:20;100489.91;;;24.72;61.49
31062;BME280;17724;53.546;9.974;2023-07-29T15:21:21;100494.53;;;24.96;61.50
31062;BME280;17724;53.546;9.974;2023-07-29T15:25:24;100495.00;;;24.98;63.14
31062;BME280;17724;53.546;9.974;2023-07-29T15:29:24;100491.41;;;25.14;63.22
31062;BME280;17724;53.546;9.974;2023-07-29T15:33:25;100488.00;;;25.08;62.82
31062;BME280;17724;53.546;9.974;2023-07-29T15:37:26;100491.72;;;24.96;62.74
31062;BME280;17724;53.546;9.974;2023-07-29T15:41:27;100489.84;;;25.16;62.11
31062;BME280;17724;53.546;9.974;2023-07-29T15:45:27;100506.28;;;25.14;57.27
31062;BME280;17724;53.546;9.974;2023-07-29T15:49:28;100495.91;;;24.87;58.51
31062;BME280;17724;53.546;9.974;2023-07-29T15:53:29;100500.34;;;24.88;61.50
31062;BME280;17724;53.546;9.974;2023-07-29T15:57:30;100496.63;;;24.83;62.63
31062;BME280;17724;53.546;9.974;2023-07-29T16:01:30;100497.47;;;24.40;60.21
31062;BME280;17724;53.546;9.974;2023-07-29T16:05:32;100500.28;;;24.40;63.03
31062;BME280;17724;53.546;9.974;2023-07-29T16:09:33;100513.16;;;24.41;62.17
31062;BME280;17724;53.546;9.974;2023-07-29T16:13:33;100525.25;;;24.29;63.56
31062;BME280;17724;53.546;9.974;2023-07-29T16:17:34;100578.13;;;23.01;69.07
31062;BME280;17724;53.546;9.974;2023-07-29T16:21:35;100596.94;;;22.34;73.68
31062;BME280;17724;53.546;9.974;2023-07-29T16:25:36;100600.63;;;21.76;80.32
31062;BME280;17724;53.546;9.974;2023-07-29T16:29:36;100606.94;;;21.94;79.76
31062;BME280;17724;53.546;9.974;2023-07-29T16:33:37;100622.72;;;21.98;84.38
31062;BME280;17724;53.546;9.974;2023-07-29T16:37:37;100600.72;;;21.20;91.59
31062;BME280;17724;53.546;9.974;2023-07-29T16:41:38;100588.16;;;21.44;95.00
31062;BME280;17724;53.546;9.974;2023-07-29T16:45:38;100585.75;;;21.54;98.01
31062;BME280;17724;53.546;9.974;2023-07-29T16:49:39;100578.06;;;21.51;98.94
31062;BME280;17724;53.546;9.974;2023-07-29T16:53:39;100580.13;;;21.63;98.11
31062;BME280;17724;53.546;9.974;2023-07-29T16:57:40;100574.00;;;21.70;99.78
31062;BME280;17724;53.546;9.974;2023-07-29T17:01:41;100569.63;;;21.81;99.77
31062;BME280;17724;53.546;9.974;2023-07-29T17:05:41;100587.06;;;21.86;96.31
31062;BME280;17724;53.546;9.974;2023-07-29T17:09:42;100588.84;;;21.91;96.41
31062;BME280;17724;53.546;9.974;2023-07-29T17:13:45;100598.13;;;21.83;96.14
31062;BME280;17724;53.546;9.974;2023-07-29T17:17:46;100605.53;;;21.49;94.47
31062;BME280;17724;53.546;9.974;2023-07-29T17:21:46;100617.72;;;21.53;98.06
31062;BME280;17724;53.546;9.974;2023-07-29T17:25:47;100615.88;;;21.57;98.99
31062;BME280;17724;53.546;9.974;2023-07-29T17:29:47;100609.56;;;21.31;98.92
31062;BME280;17724;53.546;9.974;2023-07-29T17:33:48;100616.31;;;21.38;97.79
31062;BME280;17724;53.546;9.974;2023-07-29T17:37:48;100627.66;;;21.33;97.53
31062;BME280;17724;53.546;9.974;2023-07-29T17:41:49;100623.56;;;21.31;98.37
31062;BME280;17724;53.546;9.974;2023-07-29T17:45:49;100605.31;;;21.25;98.67
31062;BME280;17724;53.546;9.974;2023-07-29T17:49:50;100616.19;;;21.17;99.52
31062;BME280;17724;53.546;9.974;2023-07-29T17:53:50;100625.53;;;21.22;100.00
31062;BME280;17724;53.546;9.974;2023-07-29T17:57:51;100635.25;;;21.33;100.00
31062;BME280;17724;53.546;9.974;2023-07-29T18:01:51;100639.69;;;21.34;100.00
31062;BME280;17724;53.546;9.974;2023-07-29T18:05:52;100647.41;;;21.28;100.00
31062;BME280;17724;53.546;9.974;2023-07-29T18:09:53;100653.50;;;21.22;100.00
31062;BME280;17724;53.546;9.974;2023-07-29T18:13:53;100655.00;;;21.10;100.00
31062;BME280;17724;53.546;9.974;2023-07-29T18:17:54;100655.72;;;20.90;100.00
31062;BME280;17724;53.546;9.974;2023-07-29T18:21:54;100650.81;;;20.87;100.00
31062;BME280;17724;53.546;9.974;2023-07-29T18:25:55;100657.53;;;20.86;100.00
31062;BME280;17724;53.546;9.974;2023-07-29T18:29:57;100652.09;;;20.89;100.00
31062;BME280;17724;53.546;9.974;2023-07-29T18:33:58;100657.22;;;20.87;100.00
31062;BME280;17724;53.546;9.974;2023-07-29T18:37:58;100651.63;;;20.87;100.00
31062;BME280;17724;53.546;9.974;2023-07-29T18:41:59;100658.03;;;20.97;100.00
31062;BME280;17724;53.546;9.974;2023-07-29T18:45:59;100665.09;;;20.94;100.00
31062;BME280;17724;53.546;9.974;2023-07-29T18:50:00;100661.81;;;20.92;100.00
31062;BME280;17724;53.546;9.974;2023-07-29T18:54:01;100660.03;;;20.87;100.00
31062;BME280;17724;53.546;9.974;2023-07-29T18:58:01;100664.09;;;20.90;100.00
31062;BME280;17724;53.546;9.974;2023-07-29T19:02:02;100670.88;;;20.80;100.00
31062;BME280;17724;53.546;9.974;2023-07-29T19:06:02;100665.63;;;20.79;100.00
31062;BME280;17724;53.546;9.974;2023-07-29T19:10:03;100665.78;;;20.74;100.00
31062;BME280;17724;53.546;9.974;2023-07-29T19:14:04;100672.03;;;20.79;100.00
31062;BME280;17724;53.546;9.974;2023-07-29T19:18:06;100673.34;;;20.64;100.00
31062;BME280;17724;53.546;9.974;2023-07-29T19:22:07;100682.38;;;20.70;100.00
31062;BME280;17724;53.546;9.974;2023-07-29T19:26:07;100676.25;;;20.42;100.00
31062;BME280;17724;53.546;9.974;2023-07-29T19:30:08;100673.97;;;20.27;100.00
31062;BME280;17724;53.546;9.974;2023-07-29T19:34:09;100669.03;;;20.24;100.00
31062;BME280;17724;53.546;9.974;2023-07-29T19:38:09;100684.47;;;20.30;100.00
31062;BME280;17724;53.546;9.974;2023-07-29T19:42:10;100691.03;;;20.34;100.00
31062;BME280;17724;53.546;9.974;2023-07-29T19:46:11;100685.78;;;20.32;100.00
31062;BME280;17724;53.546;9.974;2023-07-29T19:50:11;100689.75;;;20.31;100.00
31062;BME280;17724;53.546;9.974;2023-07-29T19:54:12;100683.00;;;20.32;100.00
31062;BME280;17724;53.546;9.974;2023-07-29T19:58:12;100696.97;;;20.24;100.00
31062;BME280;17724;53.546;9.974;2023-07-29T20:02:12;100692.19;;;20.24;100.00
31062;BME280;17724;53.546;9.974;2023-07-29T20:06:13;100697.94;;;20.19;100.00
31062;BME280;17724;53.546;9.974;2023-07-29T20:10:14;100693.66;;;20.13;100.00
31062;BME280;17724;53.546;9.974;2023-07-29T20:14:14;100696.97;;;20.24;100.00
31062;BME280;17724;53.546;9.974;2023-07-29T20:18:15;100692.19;;;20.15;100.00
31062;BME280;17724;53.546;9.974;2023-07-29T20:22:15;100705.81;;;20.17;100.00
31062;BME280;17724;53.546;9.974;2023-07-29T20:26:16;100700.88;;;20.14;100.00
31062;BME280;17724;53.546;9.974;2023-07-29T20:30:17;100703.19;;;20.12;100.00
31062;BME280;17724;53.546;9.974;2023-07-29T20:34:17;100701.03;;;20.09;100.00
31062;BME280;17724;53.546;9.974;2023-07-29T20:38:18;100697.25;;;20.13;100.00
31062;BME280;17724;53.546;9.974;2023-07-29T20:42:18;100693.19;;;20.20;100.00
31062;BME280;17724;53.546;9.974;2023-07-29T20:46:20;100690.31;;;20.02;100.00
31062;BME280;17724;53.546;9.974;2023-07-29T20:50:21;100688.53;;;20.06;100.00
31062;BME280;17724;53.546;9.974;2023-07-29T20:54:21;100678.97;;;19.99;100.00